Ana Sayfa
METAR-TAF:

METAR-TAF

Havaalanları :

Tuscaloosa, Alabama, Amerika Birleşik Devletleri

Enlem: 33-12-43N, Boylam: 087-36-57W, yükseklik: 52 m

Güncel hava durumu gözlemi

Rapor saat 21:53 UTC de 46 dakika önce yapıldı.
Rüzgar güneydan 9 kt ve 14 kt'a kadar ani rüzgarlar
Sıcaklık 30°C
Nem 43%
Basınç 1014 hPa
Görüş mesafesi: 16.1 km
Açık gökyüzü

METAR: KTCL 212153Z 18009G14KT 10SM CLR 30/16 A2994 RMK AO2 SLP135 T03000161

Saat: 17:39 (22:39 UTC)

Tahmin

Rapor saat 17:20 UTC de 5 saat ve 19 dakika önce yapıldı.
Ayın 21'si saat 18 UTC'den ayın 22'si saat 18 UTC'ye kadar geçerli Tahmin
Rüzgar güneydan 7 kt
Görüş mesafesi: 10 km
5000 ft yükseklikte az bulutlu
Ayın 22'si saat 0100 UTC'den
Rüzgar güney/güneydoğudan 4 kt
Görüş mesafesi: 10 km
Açık gökyüzü
Ayın 22'si saat 1700 UTC'den
Rüzgar güneydan 7 kt
Görüş mesafesi: 10 km
5000 ft yükseklikte parçalı bulutlu

TAF: KTCL 211720Z 2118/2218 17007KT P6SM FEW050 FM220100 16004KT P6SM SKC FM221700 18007KT P6SM SCT050

4.000'den fazla havaalanı için hava durumu gözlemleri ve tahminleri (METAR ve TAF raporları).

Kullanılabilir istasyonlar harita üzerinde sarı ve kırmızı noktalarla gösterilir.

İstasyonun adını görmek için fareyi noktanın üzerinde gezdirin.

Sonrasında hava gözlem ve tahminlerini görmek için tıklayın.

Haritayı değiştirmek için: yaklaştırmak için siyah artı işaretli yeşil düğmeye ve uzaklaştırmak için de eksi işaretli düğmeye hızla tıklayın; bitişik haritalar için yeşil okları kullanın.


METAR-TAF: